Time;durP1;ratioP1;P1;durP2;ratioP2;P2;SDS_P1;SDS_P2;PMS_P1;PMS_P2;Temp;Humidity;BMP_temperature;BMP_pressure;BME280_temperature;BME280_humidity;BME280_pressure;Samples;Min_cycle;Max_cycle;Signal;HPM_P1;HPM_P2
2022/07/20 00:02:03;;;;;;;;;;;;;;;29.49;36.92;94350.38;5007169;28;8991;-62
2022/07/20 00:04:31;;;;;;;;;;;;;;;29.48;36.78;94353.69;4999615;28;7064;-62
2022/07/20 00:07:17;;;;;;;;;;;;;;;29.47;36.99;94346.66;5007506;28;9105;-62
2022/07/20 00:12:43;;;;;;;;;;;;;;;29.46;36.33;94353.47;5009848;28;10195;-62
2022/07/20 00:15:17;;;;;;;;;;;;;;;29.44;37.01;94351.25;5019004;28;9043;-62
2022/07/20 00:17:56;;;;;;;;;;;;;;;29.44;36.53;94347.72;5013679;28;9165;-62
2022/07/20 00:20:24;;;;;;;;;;;;;;;29.42;36.68;94348.28;5012915;28;7481;-62
2022/07/20 00:23:04;;;;;;;;;;;;;;;29.42;37.18;94347.53;5001722;28;7216;-62
2022/07/20 00:25:40;;;;;;;;;;;;;;;29.42;36.55;94344.75;4992802;28;7251;-62
2022/07/20 00:28:17;;;;;;;;;;;;;;;29.42;36.50;94353.06;4995432;28;7200;-62
2022/07/20 00:30:43;;;;;;;;;;;;;;;29.39;37.11;94352.09;5005825;28;7492;-62
2022/07/20 00:33:10;;;;;;;;;;;;;;;29.41;36.62;94351.56;4996571;28;7280;-62
2022/07/20 00:35:49;;;;;;;;;;;;;;;29.42;37.07;94353.06;4990463;28;7653;-62
2022/07/20 00:38:14;;;;;;;;;;;;;;;29.38;37.41;94350.63;4981134;28;7233;-62
2022/07/20 00:40:58;;;;;;;;;;;;;;;29.39;36.74;94345.81;4999856;28;8481;-62
2022/07/20 00:43:26;;;;;;;;;;;;;;;29.36;36.60;94346.91;5020071;28;8141;-62
2022/07/20 00:46:01;;;;;;;;;;;;;;;29.36;37.34;94347.63;5000786;28;9369;-61
2022/07/20 00:48:27;;;;;;;;;;;;;;;29.36;37.09;94346.91;4992388;28;7290;-62
2022/07/20 00:50:53;;;;;;;;;;;;;;;29.36;36.71;94352.44;4999986;28;7157;-62
2022/07/20 00:53:19;;;;;;;;;;;;;;;29.34;37.44;94349.47;4989726;28;8849;-62
2022/07/20 00:55:49;;;;;;;;;;;;;;;29.33;36.58;94359.06;4999980;28;7250;-62
2022/07/20 00:58:42;;;;;;;;;;;;;;;29.34;36.55;94363.31;4999288;28;9550;-62
2022/07/20 01:01:25;;;;;;;;;;;;;;;29.37;36.68;94370.53;4954273;28;9385;-62
2022/07/20 01:04:01;;;;;;;;;;;;;;;29.34;36.62;94374.41;4959255;28;7063;-61
2022/07/20 01:06:38;;;;;;;;;;;;;;;29.34;36.87;94383.44;4968833;28;7023;-61
2022/07/20 01:09:05;;;;;;;;;;;;;;;29.32;36.44;94374.94;4955541;28;7123;-61
2022/07/20 01:11:35;;;;;;;;;;;;;;;29.32;36.98;94382.50;4968378;28;7309;-61
2022/07/20 01:14:13;;;;;;;;;;;;;;;29.32;37.09;94371.44;4948977;28;6985;-62
2022/07/20 01:16:40;;;;;;;;;;;;;;;29.29;37.18;94364.94;4949130;28;7011;-62
2022/07/20 01:19:11;;;;;;;;;;;;;;;29.30;36.57;94371.19;4950159;28;9345;-62
2022/07/20 01:22:11;;;;;;;;;;;;;;;29.27;37.54;94372.28;4953633;28;7357;-62
2022/07/20 01:24:38;;;;;;;;;;;;;;;29.23;37.59;94369.81;4906453;29;9531;-62
2022/07/20 01:27:07;;;;;;;;;;;;;;;29.22;37.20;94373.88;4912626;29;8792;-61
2022/07/20 01:29:38;;;;;;;;;;;;;;;29.22;37.11;94378.69;4911949;29;7453;-61
2022/07/20 01:32:06;;;;;;;;;;;;;;;29.19;37.29;94385.31;4900545;29;8496;-61
2022/07/20 01:34:33;;;;;;;;;;;;;;;29.19;37.65;94382.53;4909404;29;7003;-61
2022/07/20 01:36:59;;;;;;;;;;;;;;;29.20;37.19;94386.78;4913147;29;9786;-62
2022/07/20 01:39:36;;;;;;;;;;;;;;;29.19;37.45;94388.06;4932926;28;7084;-62
2022/07/20 01:42:04;;;;;;;;;;;;;;;29.16;36.95;94383.56;4933639;28;7743;-62
2022/07/20 01:44:38;;;;;;;;;;;;;;;29.16;37.35;94387.13;4947950;28;8717;-62
2022/07/20 01:47:04;;;;;;;;;;;;;;;29.17;37.47;94387.88;4943896;28;7251;-62
2022/07/20 01:49:30;;;;;;;;;;;;;;;29.17;36.78;94385.09;4937898;28;7819;-62
2022/07/20 01:51:56;;;;;;;;;;;;;;;29.16;36.69;94380.78;4928775;28;7585;-62
2022/07/20 01:54:22;;;;;;;;;;;;;;;29.14;36.68;94386.13;4925019;28;9123;-62
2022/07/20 01:56:48;;;;;;;;;;;;;;;29.14;37.22;94381.34;4938463;28;6979;-62
2022/07/20 01:59:18;;;;;;;;;;;;;;;29.17;37.47;94387.88;4948199;28;9050;-62
2022/07/20 02:01:44;;;;;;;;;;;;;;;29.17;37.44;94385.09;4989732;28;7272;-62
2022/07/20 02:04:13;;;;;;;;;;;;;;;29.16;37.65;94386.34;4991933;28;7246;-62
2022/07/20 02:06:45;;;;;;;;;;;;;;;29.14;37.32;94381.34;5004538;28;7277;-62
2022/07/20 02:09:12;;;;;;;;;;;;;;;29.13;36.87;94379.09;5001760;28;9124;-62
2022/07/20 02:11:57;;;;;;;;;;;;;;;29.16;37.40;94378.81;4991251;28;8701;-62
2022/07/20 02:14:27;;;;;;;;;;;;;;;29.13;37.60;94384.63;5007314;28;7053;-62
2022/07/20 02:16:53;;;;;;;;;;;;;;;29.12;37.56;94383.91;4991533;28;9353;-62
2022/07/20 02:19:37;;;;;;;;;;;;;;;29.13;37.29;94379.09;5010875;28;9483;-62
2022/07/20 02:22:10;;;;;;;;;;;;;;;29.12;37.09;94375.59;4997177;28;7085;-62
2022/07/20 02:24:47;;;;;;;;;;;;;;;29.09;37.51;94377.41;4988125;28;7261;-62
2022/07/20 02:27:13;;;;;;;;;;;;;;;29.12;37.38;94381.13;5011182;28;8223;-62
2022/07/20 02:29:38;;;;;;;;;;;;;;;29.13;36.79;94379.84;5003458;28;8496;-62
2022/07/20 02:32:05;;;;;;;;;;;;;;;29.11;37.64;94382.41;4991265;28;7498;-62
2022/07/20 02:34:31;;;;;;;;;;;;;;;29.14;37.04;94388.91;4985454;28;7274;-61
2022/07/20 02:36:57;;;;;;;;;;;;;;;29.13;37.00;94376.31;4987741;28;7258;-62
2022/07/20 02:39:25;;;;;;;;;;;;;;;29.12;37.29;94380.38;4999894;28;7272;-62
2022/07/20 02:41:54;;;;;;;;;;;;;;;29.12;37.90;94380.38;5005786;28;7315;-62
2022/07/20 02:44:19;;;;;;;;;;;;;;;29.10;37.86;94378.88;4990300;28;9075;-62
2022/07/20 02:46:48;;;;;;;;;;;;;;;29.12;37.56;94388.69;4996399;28;7273;-62
2022/07/20 02:49:13;;;;;;;;;;;;;;;29.10;37.35;94389.94;4989354;28;9148;-62
2022/07/20 02:51:59;;;;;;;;;;;;;;;29.10;37.40;94381.66;5001726;28;6929;-62
2022/07/20 02:54:31;;;;;;;;;;;;;;;29.07;37.73;94377.19;4984342;28;8811;-62
2022/07/20 02:57:01;;;;;;;;;;;;;;;29.08;37.95;94391.75;4997713;28;9248;-62
2022/07/20 02:59:36;;;;;;;;;;;;;;;29.07;38.02;94381.97;5000727;28;7838;-62
2022/07/20 03:02:06;;;;;;;;;;;;;;;29.07;37.29;94379.22;5003443;28;7403;-62
2022/07/20 03:04:35;;;;;;;;;;;;;;;29.06;37.79;94372.16;5014776;28;7279;-62
2022/07/20 03:07:02;;;;;;;;;;;;;;;29.05;38.12;94388.06;5003986;28;7107;-62
2022/07/20 03:09:43;;;;;;;;;;;;;;;29.06;37.43;94389.53;4998332;28;7213;-62
2022/07/20 03:12:22;;;;;;;;;;;;;;;29.04;37.87;94392.09;4984418;28;7134;-62
2022/07/20 03:14:56;;;;;;;;;;;;;;;29.07;38.10;94393.81;5001563;28;8236;-62
2022/07/20 03:17:54;;;;;;;;;;;;;;;29.06;38.32;94391.56;5013517;28;8302;-62
2022/07/20 03:20:45;;;;;;;;;;;;;;;29.05;37.60;94399.13;4953641;28;6999;-62
2022/07/20 03:23:14;;;;;;;;;;;;;;;29.04;38.10;94391.34;4953715;28;7933;-61
2022/07/20 03:25:58;;;;;;;;;;;;;;;29.02;38.34;94411.28;4956832;28;9461;-62
2022/07/20 03:28:31;;;;;;;;;;;;;;;29.02;38.17;94408.50;4949571;28;7252;-62
2022/07/20 03:31:20;;;;;;;;;;;;;;;29.02;38.30;94411.28;4970587;28;7051;-62
2022/07/20 03:33:54;;;;;;;;;;;;;;;29.01;38.39;94407.00;4965026;28;9633;-62
2022/07/20 03:36:22;;;;;;;;;;;;;;;29.02;38.53;94410.53;4956283;28;6925;-62
2022/07/20 03:39:14;;;;;;;;;;;;;;;29.02;38.42;94411.28;4957005;28;9652;-62
2022/07/20 03:41:51;;;;;;;;;;;;;;;28.99;38.01;94406.78;4971427;28;7291;-62
2022/07/20 03:44:23;;;;;;;;;;;;;;;28.97;38.40;94408.63;4971243;28;9035;-62
2022/07/20 03:46:49;;;;;;;;;;;;;;;28.98;38.40;94418.41;4955590;28;7231;-61
2022/07/20 03:49:15;;;;;;;;;;;;;;;28.96;38.15;94413.41;4966028;28;7659;-62
2022/07/20 03:51:40;;;;;;;;;;;;;;;28.93;38.50;94414.47;4949915;28;7309;-62
2022/07/20 03:54:09;;;;;;;;;;;;;;;28.93;38.50;94420.00;4953514;28;8787;-62
2022/07/20 03:56:40;;;;;;;;;;;;;;;28.90;38.74;94421.09;4984975;28;7437;-62
2022/07/20 03:59:25;;;;;;;;;;;;;;;28.91;38.66;94419.78;5009427;28;9102;-62
2022/07/20 04:01:51;;;;;;;;;;;;;;;28.91;38.19;94422.56;5018998;28;9451;-62
2022/07/20 04:04:24;;;;;;;;;;;;;;;28.93;38.69;94420.00;5014693;28;7142;-62
2022/07/20 04:06:56;;;;;;;;;;;;;;;28.92;38.77;94426.09;4995185;28;9889;-62
2022/07/20 04:12:15;;;;;;;;;;;;;;;28.93;38.42;94430.31;5008185;28;9482;-62
2022/07/20 04:14:55;;;;;;;;;;;;;;;28.91;38.64;94430.13;4985460;28;6969;-62
2022/07/20 04:17:28;;;;;;;;;;;;;;;28.89;38.57;94436.19;4996749;28;7274;-62
2022/07/20 04:19:55;;;;;;;;;;;;;;;28.90;38.27;94431.41;5013903;28;7104;-62
2022/07/20 04:22:24;;;;;;;;;;;;;;;28.90;38.79;94440.47;4995493;28;9141;-62
2022/07/20 04:24:56;;;;;;;;;;;;;;;28.92;38.89;94439.94;5013786;28;7289;-62
2022/07/20 04:27:23;;;;;;;;;;;;;;;28.91;38.48;94444.72;4997128;28;6985;-62
2022/07/20 04:29:53;;;;;;;;;;;;;;;28.91;38.42;94447.47;5011966;28;7582;-62
2022/07/20 04:32:19;;;;;;;;;;;;;;;28.90;38.59;94443.22;4988876;28;7186;-62
2022/07/20 04:34:45;;;;;;;;;;;;;;;28.90;38.44;94442.47;5005002;28;9292;-62
2022/07/20 04:37:12;;;;;;;;;;;;;;;28.90;38.44;94457.06;4989464;28;7466;-62
2022/07/20 04:39:40;;;;;;;;;;;;;;;28.89;38.76;94458.34;4987472;28;7222;-62
2022/07/20 04:42:06;;;;;;;;;;;;;;;28.90;38.79;94459.09;5006629;28;8830;-62
2022/07/20 04:44:34;;;;;;;;;;;;;;;28.89;38.94;94463.88;4991824;28;8650;-62
2022/07/20 04:47:00;;;;;;;;;;;;;;;28.89;38.66;94465.91;5008971;28;7119;-62
2022/07/20 04:49:26;;;;;;;;;;;;;;;28.89;39.02;94466.66;4994737;28;9102;-62
2022/07/20 04:51:56;;;;;;;;;;;;;;;28.86;39.04;94464.94;4982816;28;7248;-62
2022/07/20 04:54:22;;;;;;;;;;;;;;;28.86;39.06;94459.38;4991121;28;9170;-62
2022/07/20 04:56:49;;;;;;;;;;;;;;;28.86;38.79;94461.44;5007977;28;7058;-62
2022/07/20 04:59:18;;;;;;;;;;;;;;;28.85;38.69;94466.22;4994292;28;9406;-62
2022/07/20 05:01:44;;;;;;;;;;;;;;;28.83;38.83;94466.00;4994886;28;7529;-62
2022/07/20 05:04:12;;;;;;;;;;;;;;;28.79;39.43;94470.38;4994624;28;6982;-61
2022/07/20 05:06:38;;;;;;;;;;;;;;;28.70;39.47;94462.47;5007518;28;7192;-61
2022/07/20 05:09:07;;;;;;;;;;;;;;;28.66;39.72;94465.56;5009717;28;8840;-61
2022/07/20 05:11:37;;;;;;;;;;;;;;;28.65;39.37;94458.53;5007796;28;8902;-61
2022/07/20 05:14:08;;;;;;;;;;;;;;;28.69;39.48;94456.19;4978402;28;7272;-61
2022/07/20 05:16:35;;;;;;;;;;;;;;;28.71;39.41;94458.44;5019768;28;7008;-61
2022/07/20 05:19:15;;;;;;;;;;;;;;;28.77;40.00;94468.13;4996151;28;7886;-61
2022/07/20 05:21:55;;;;;;;;;;;;;;;28.79;39.93;94464.81;5012232;28;7982;-61
2022/07/20 05:24:28;;;;;;;;;;;;;;;28.80;39.90;94469.81;5012126;28;9104;-61
2022/07/20 05:26:55;;;;;;;;;;;;;;;28.74;40.25;94462.91;4989082;28;9397;-61
2022/07/20 05:29:23;;;;;;;;;;;;;;;28.77;40.25;94470.91;4990150;28;6994;-61
2022/07/20 05:31:49;;;;;;;;;;;;;;;28.79;40.34;94464.81;5007162;28;7307;-61
2022/07/20 05:34:20;;;;;;;;;;;;;;;28.77;40.01;94465.38;4994589;28;7305;-61
2022/07/20 05:36:48;;;;;;;;;;;;;;;28.82;40.19;94469.28;5008567;28;7449;-62
2022/07/20 05:39:16;;;;;;;;;;;;;;;28.81;40.02;94460.25;4999879;28;9134;-61
2022/07/20 05:41:42;;;;;;;;;;;;;;;28.86;40.09;94466.97;5004905;28;8730;-62
2022/07/20 05:44:27;;;;;;;;;;;;;;;28.88;40.10;94475.50;5007617;28;9324;-62
2022/07/20 05:46:53;;;;;;;;;;;;;;;28.87;39.90;94471.22;4980106;28;7089;-61
2022/07/20 05:49:19;;;;;;;;;;;;;;;28.89;40.16;94480.50;4993005;28;7229;-62
2022/07/20 05:51:47;;;;;;;;;;;;;;;28.92;40.14;94478.69;4992825;28;7896;-62
2022/07/20 05:54:15;;;;;;;;;;;;;;;28.92;40.06;94478.69;5009475;28;7454;-61
2022/07/20 05:57:08;;;;;;;;;;;;;;;28.94;40.15;94482.44;4998289;28;7562;-62
2022/07/20 05:59:46;;;;;;;;;;;;;;;28.93;40.92;94480.16;4951646;28;7027;-62
2022/07/20 06:02:14;;;;;;;;;;;;;;;28.90;40.84;94482.00;4968771;28;7409;-62
2022/07/20 06:05:13;;;;;;;;;;;;;;;28.93;40.51;94485.69;4968165;28;7382;-62
2022/07/20 06:07:54;;;;;;;;;;;;;;;28.90;40.50;94493.06;4838801;29;6989;-62
2022/07/20 06:10:52;;;;;;;;;;;;;;;28.87;42.14;94498.91;4848184;29;9404;-62
2022/07/20 06:13:33;;;;;;;;;;;;;;;28.89;42.23;94501.88;4803164;29;9267;-62
2022/07/20 06:15:58;;;;;;;;;;;;;;;28.92;42.46;94506.38;4784823;29;7002;-62
2022/07/20 06:18:39;;;;;;;;;;;;;;;28.95;41.81;94500.50;4787719;29;9047;-62
2022/07/20 06:21:05;;;;;;;;;;;;;;;28.94;42.28;94503.81;4781755;29;7188;-62
2022/07/20 06:23:32;;;;;;;;;;;;;;;28.90;42.69;94498.63;4784237;29;7059;-62
2022/07/20 06:26:11;;;;;;;;;;;;;;;28.89;42.97;94497.09;4803942;29;7240;-62
2022/07/20 06:29:08;;;;;;;;;;;;;;;28.92;43.18;94498.06;4786899;29;9028;-62
2022/07/20 06:31:51;;;;;;;;;;;;;;;28.94;42.96;94501.06;4756726;30;7225;-62
2022/07/20 06:34:32;;;;;;;;;;;;;;;28.97;43.58;94505.53;4767397;30;7052;-61
2022/07/20 06:36:59;;;;;;;;;;;;;;;28.97;43.62;94505.53;4766357;29;7970;-62
2022/07/20 06:39:41;;;;;;;;;;;;;;;28.97;43.04;94500.00;4784169;29;7100;-62
2022/07/20 06:42:16;;;;;;;;;;;;;;;28.98;43.48;94504.25;4787161;29;6970;-62
2022/07/20 06:44:44;;;;;;;;;;;;;;;28.99;43.25;94500.94;4853067;29;7236;-62
2022/07/20 06:47:20;;;;;;;;;;;;;;;28.99;44.27;94506.47;4896328;29;7374;-62
2022/07/20 06:49:46;;;;;;;;;;;;;;;28.98;43.72;94518.09;4928348;28;8344;-62
2022/07/20 06:52:12;;;;;;;;;;;;;;;28.97;43.86;94506.28;4926748;28;7184;-62
2022/07/20 06:54:38;;;;;;;;;;;;;;;29.01;44.29;94509.47;4954886;28;7146;-62
2022/07/20 06:57:04;;;;;;;;;;;;;;;28.98;43.86;94499.47;4938630;28;9439;-62
2022/07/20 06:59:32;;;;;;;;;;;;;;;28.96;43.11;94507.56;4934804;28;7248;-61
2022/07/20 07:02:08;;;;;;;;;;;;;;;28.96;43.26;94506.81;4954615;28;7923;-61
2022/07/20 07:04:35;;;;;;;;;;;;;;;28.98;42.81;94512.56;4950088;28;7288;-62
2022/07/20 07:07:02;;;;;;;;;;;;;;;29.00;42.69;94513.53;4934047;28;7402;-62
2022/07/20 07:09:32;;;;;;;;;;;;;;;29.01;42.97;94517.03;5010147;28;9044;-61
2022/07/20 07:12:04;;;;;;;;;;;;;;;29.05;42.20;94515.47;5008580;28;7585;-61
2022/07/20 07:14:33;;;;;;;;;;;;;;;29.06;42.54;94516.19;4980756;28;7202;-61
2022/07/20 07:17:03;;;;;;;;;;;;;;;29.09;42.20;94513.13;5006396;28;7890;-62
2022/07/20 07:19:35;;;;;;;;;;;;;;;29.13;42.37;94514.81;5000529;28;8375;-61
2022/07/20 07:22:01;;;;;;;;;;;;;;;29.19;42.13;94518.28;4997626;28;8178;-62
2022/07/20 07:24:32;;;;;;;;;;;;;;;29.16;41.88;94514.53;4994899;28;7234;-62
2022/07/20 07:27:04;;;;;;;;;;;;;;;29.14;43.09;94519.06;4993975;28;7216;-62
2022/07/20 07:29:33;;;;;;;;;;;;;;;29.19;42.34;94519.00;5008076;28;7368;-61
2022/07/20 07:32:00;;;;;;;;;;;;;;;29.21;42.92;94521.25;4996272;28;9141;-62
2022/07/20 07:34:27;;;;;;;;;;;;;;;29.22;43.07;94517.19;5013959;28;7007;-62
2022/07/20 07:36:57;;;;;;;;;;;;;;;29.27;43.05;94522.63;5011920;28;7198;-62
2022/07/20 07:39:24;;;;;;;;;;;;;;;29.26;42.83;94529.44;5013341;28;7079;-62
2022/07/20 07:41:50;;;;;;;;;;;;;;;29.28;42.24;94526.88;4997187;28;7764;-62
2022/07/20 07:44:18;;;;;;;;;;;;;;;29.22;42.49;94523.47;5008616;28;9155;-62
2022/07/20 07:46:44;;;;;;;;;;;;;;;29.19;42.94;94529.34;4992776;28;7264;-63
2022/07/20 07:49:10;;;;;;;;;;;;;;;29.15;43.11;94526.09;5001644;28;7047;-62
2022/07/20 07:51:38;;;;;;;;;;;;;;;29.13;42.97;94521.09;5011478;28;7425;-63
2022/07/20 07:54:05;;;;;;;;;;;;;;;29.16;43.42;94530.38;4994800;28;6957;-62
2022/07/20 07:56:32;;;;;;;;;;;;;;;29.19;43.75;94523.81;5013965;28;8860;-62
2022/07/20 07:59:09;;;;;;;;;;;;;;;29.20;43.43;94526.03;5013185;28;9078;-62
2022/07/20 08:01:35;;;;;;;;;;;;;;;29.21;43.13;94529.56;5011620;28;8616;-62
2022/07/20 08:04:05;;;;;;;;;;;;;;;29.22;43.55;94540.09;4997582;28;7813;-62
2022/07/20 08:06:36;;;;;;;;;;;;;;;29.24;43.03;94542.34;4990008;28;7274;-62
2022/07/20 08:09:04;;;;;;;;;;;;;;;29.23;43.17;94540.84;4998875;28;9480;-62
2022/07/20 08:11:31;;;;;;;;;;;;;;;29.24;43.28;94550.66;5014076;28;7180;-62
2022/07/20 08:14:05;;;;;;;;;;;;;;;29.21;42.92;94543.41;4996845;28;7010;-62
2022/07/20 08:16:32;;;;;;;;;;;;;;;29.22;43.24;94545.63;4982793;28;7189;-63
2022/07/20 08:18:58;;;;;;;;;;;;;;;29.22;42.61;94539.34;5004416;28;9392;-62
2022/07/20 08:21:35;;;;;;;;;;;;;;;29.21;43.42;94548.94;5013235;28;7334;-62
2022/07/20 08:24:08;;;;;;;;;;;;;;;29.20;43.26;94548.19;5011060;28;8933;-62
2022/07/20 08:26:36;;;;;;;;;;;;;;;29.20;42.97;94548.19;5012214;28;7324;-62
2022/07/20 08:29:09;;;;;;;;;;;;;;;29.20;43.16;94553.00;4994731;28;9151;-62
2022/07/20 08:32:05;;;;;;;;;;;;;;;29.20;43.53;94553.75;4992481;28;7329;-62
2022/07/20 08:34:33;;;;;;;;;;;;;;;29.21;43.12;94554.50;4951115;28;8538;-62
2022/07/20 08:37:31;;;;;;;;;;;;;;;29.22;42.69;94555.97;4945214;28;7057;-62
2022/07/20 08:39:57;;;;;;;;;;;;;;;29.22;42.70;94562.25;4893991;29;7428;-62
2022/07/20 08:42:29;;;;;;;;;;;;;;;29.21;43.32;94555.22;4901498;29;7226;-61
2022/07/20 08:44:55;;;;;;;;;;;;;;;29.21;42.47;94552.44;4895679;29;7228;-61
2022/07/20 08:47:26;;;;;;;;;;;;;;;29.23;42.84;94560.25;4894644;29;7133;-61
2022/07/20 08:49:54;;;;;;;;;;;;;;;29.19;43.14;94552.22;4911268;29;7037;-61
2022/07/20 08:52:20;;;;;;;;;;;;;;;29.22;42.36;94556.72;4909874;29;7219;-61
2022/07/20 08:54:47;;;;;;;;;;;;;;;29.23;43.29;94557.47;4914905;29;8980;-61
2022/07/20 08:57:17;;;;;;;;;;;;;;;29.23;43.91;94547.13;4912525;29;8782;-61
2022/07/20 08:59:46;;;;;;;;;;;;;;;29.24;43.07;94553.41;4911283;29;8828;-62
2022/07/20 09:02:14;;;;;;;;;;;;;;;29.24;43.36;94553.41;4895517;29;9181;-62
2022/07/20 09:04:54;;;;;;;;;;;;;;;29.25;43.01;94543.84;4912607;29;7235;-62
2022/07/20 09:07:47;;;;;;;;;;;;;;;29.27;42.67;94542.03;4911128;29;7221;-62
2022/07/20 09:10:26;;;;;;;;;;;;;;;29.27;42.31;94544.06;4912188;29;8737;-62
2022/07/20 09:12:53;;;;;;;;;;;;;;;29.27;42.85;94541.28;4912559;29;9147;-62
2022/07/20 09:15:41;;;;;;;;;;;;;;;29.28;42.73;94542.75;4932404;28;7271;-62
2022/07/20 09:18:16;;;;;;;;;;;;;;;29.28;42.37;94551.06;5010497;28;7186;-62
2022/07/20 09:20:49;;;;;;;;;;;;;;;29.29;42.83;94545.00;5006926;28;8790;-62
2022/07/20 09:23:26;;;;;;;;;;;;;;;29.29;42.62;94547.03;5009608;28;7339;-62
2022/07/20 09:25:58;;;;;;;;;;;;;;;29.29;42.29;94550.56;4989980;28;7396;-62
2022/07/20 09:28:48;;;;;;;;;;;;;;;29.29;42.41;94555.34;4991559;28;6992;-62
2022/07/20 09:31:21;;;;;;;;;;;;;;;29.29;42.54;94550.56;5013095;28;7026;-62
2022/07/20 09:34:00;;;;;;;;;;;;;;;29.30;42.46;94554.06;5000290;28;7180;-62
2022/07/20 09:36:31;;;;;;;;;;;;;;;29.32;42.39;94554.28;4995455;28;8799;-62
2022/07/20 09:39:13;;;;;;;;;;;;;;;29.33;42.25;94553.00;5010470;28;7268;-62
2022/07/20 09:41:42;;;;;;;;;;;;;;;29.33;43.10;94555.78;5002089;28;8036;-62
2022/07/20 09:44:21;;;;;;;;;;;;;;;29.34;42.20;94562.81;4977890;28;7879;-62
2022/07/20 09:46:47;;;;;;;;;;;;;;;29.35;42.03;94558.75;4993797;28;6938;-61
2022/07/20 09:49:13;;;;;;;;;;;;;;;29.34;42.72;94557.28;5009516;28;7235;-61
2022/07/20 09:51:45;;;;;;;;;;;;;;;29.35;42.48;94558.75;5007675;28;9062;-61
2022/07/20 09:54:17;;;;;;;;;;;;;;;29.36;42.21;94563.03;5000629;28;7382;-62
2022/07/20 09:56:45;;;;;;;;;;;;;;;29.37;42.62;94558.97;5005263;28;7021;-62
2022/07/20 09:59:13;;;;;;;;;;;;;;;29.37;42.48;94556.19;5008939;28;7279;-62
2022/07/20 10:01:46;;;;;;;;;;;;;;;29.39;42.20;94557.16;5004166;28;9127;-62
2022/07/20 10:04:14;;;;;;;;;;;;;;;29.41;41.75;94559.38;5007897;28;8833;-62
2022/07/20 10:06:43;;;;;;;;;;;;;;;29.41;41.93;94551.06;4987489;28;9297;-62
2022/07/20 10:09:11;;;;;;;;;;;;;;;29.42;42.51;94560.91;4987925;28;9076;-62
2022/07/20 10:11:37;;;;;;;;;;;;;;;29.42;42.47;94558.13;5008202;28;9449;-62
2022/07/20 10:14:05;;;;;;;;;;;;;;;29.44;42.27;94564.63;4992675;28;7913;-62
2022/07/20 10:16:38;;;;;;;;;;;;;;;29.44;42.37;94563.88;5008584;28;7243;-62
2022/07/20 10:19:10;;;;;;;;;;;;;;;29.45;42.61;94560.56;4995357;28;7275;-62
2022/07/20 10:21:39;;;;;;;;;;;;;;;29.45;42.10;94560.56;4992870;28;7397;-62
2022/07/20 10:24:29;;;;;;;;;;;;;;;29.47;42.49;94558.00;4993141;28;8711;-62
2022/07/20 10:27:25;;;;;;;;;;;;;;;29.48;42.72;94558.75;4988062;28;7458;-63
2022/07/20 10:29:55;;;;;;;;;;;;;;;29.47;42.51;94555.25;5002710;28;7155;-63
2022/07/20 10:32:28;;;;;;;;;;;;;;;29.49;42.18;94557.50;5013115;28;7290;-62
2022/07/20 10:34:57;;;;;;;;;;;;;;;29.50;42.40;94551.41;4998793;28;8509;-62
2022/07/20 10:37:37;;;;;;;;;;;;;;;29.51;42.14;94546.63;5013411;28;7517;-62
2022/07/20 10:40:11;;;;;;;;;;;;;;;29.50;42.77;94543.09;5006585;28;9059;-62
2022/07/20 10:42:47;;;;;;;;;;;;;;;29.52;42.38;94542.56;5006724;28;9529;-62
2022/07/20 10:45:23;;;;;;;;;;;;;;;29.51;42.45;94543.84;4994833;28;7222;-61
2022/07/20 10:47:50;;;;;;;;;;;;;;;29.52;42.04;94542.56;5006616;28;7191;-61
2022/07/20 10:50:24;;;;;;;;;;;;;;;29.49;42.25;94538.09;5000252;28;7259;-62
2022/07/20 10:52:54;;;;;;;;;;;;;;;29.53;41.28;94542.03;5010236;28;7275;-62
2022/07/20 10:55:35;;;;;;;;;;;;;;;29.54;41.32;94537.97;5007755;28;7084;-62
2022/07/20 10:58:05;;;;;;;;;;;;;;;29.56;41.41;94540.97;4983694;28;7283;-62
2022/07/20 11:00:39;;;;;;;;;;;;;;;29.58;42.28;94534.91;5010313;28;7275;-62
2022/07/20 11:03:24;;;;;;;;;;;;;;;29.54;41.12;94537.97;4985577;28;9116;-62
2022/07/20 11:06:16;;;;;;;;;;;;;;;29.55;41.58;94533.19;5008695;28;7080;-62
2022/07/20 11:08:49;;;;;;;;;;;;;;;29.58;41.93;94521.03;5006980;28;8964;-61
2022/07/20 11:11:41;;;;;;;;;;;;;;;29.58;41.50;94524.53;4991527;28;9196;-61
2022/07/20 11:14:10;;;;;;;;;;;;;;;29.60;41.97;94524.75;4986964;28;7148;-61
2022/07/20 11:16:38;;;;;;;;;;;;;;;29.61;41.70;94512.38;4994798;28;7023;-61
2022/07/20 11:19:06;;;;;;;;;;;;;;;29.62;41.17;94504.81;4986746;28;7259;-61
2022/07/20 11:21:40;;;;;;;;;;;;;;;29.61;41.91;94508.88;5008619;28;7481;-61
2022/07/20 11:24:26;;;;;;;;;;;;;;;29.64;40.91;94508.56;4995880;28;9455;-61
2022/07/20 11:26:55;;;;;;;;;;;;;;;29.65;41.00;94498.19;4989665;28;7076;-61
2022/07/20 11:29:27;;;;;;;;;;;;;;;29.66;41.37;94494.16;4996551;28;6977;-61
2022/07/20 11:32:06;;;;;;;;;;;;;;;29.68;41.49;94492.34;5018176;28;7287;-61
2022/07/20 11:34:41;;;;;;;;;;;;;;;29.68;41.96;94491.59;4995112;28;9437;-61
2022/07/20 11:37:09;;;;;;;;;;;;;;;29.68;41.08;94486.03;5001606;28;9079;-61
2022/07/20 11:39:36;;;;;;;;;;;;;;;29.66;41.79;94483.06;5012936;28;7326;-62
2022/07/20 11:42:16;;;;;;;;;;;;;;;29.66;41.56;94485.84;5001184;28;9162;-62
2022/07/20 11:45:02;;;;;;;;;;;;;;;29.64;40.90;94474.53;4996089;28;7196;-61
2022/07/20 11:47:39;;;;;;;;;;;;;;;29.64;40.86;94475.28;4994282;28;6870;-62
2022/07/20 11:50:09;;;;;;;;;;;;;;;29.67;40.91;94474.19;4995560;28;7266;-62
2022/07/20 11:52:44;;;;;;;;;;;;;;;29.68;41.69;94470.16;5011754;28;7052;-62
2022/07/20 11:55:12;;;;;;;;;;;;;;;29.68;41.46;94469.41;4995355;28;7205;-62
2022/07/20 11:57:38;;;;;;;;;;;;;;;29.68;40.72;94475.72;5012270;28;7236;-62
2022/07/20 12:00:07;;;;;;;;;;;;;;;29.69;41.07;94468.13;4995669;28;9048;-62
2022/07/20 12:02:36;;;;;;;;;;;;;;;29.68;41.23;94461.09;4996389;28;9818;-62
2022/07/20 12:05:09;;;;;;;;;;;;;;;29.69;41.06;94468.13;4995377;28;7096;-62
2022/07/20 12:11:02;;;;;;;;;;;;;;;29.74;41.77;94456.94;5009486;28;7008;-62
2022/07/20 12:13:50;;;;;;;;;;;;;;;29.76;40.81;94450.84;4931985;29;7224;-62
2022/07/20 12:16:19;;;;;;;;;;;;;;;29.77;40.38;94455.13;4911772;29;7228;-61
2022/07/20 12:19:03;;;;;;;;;;;;;;;29.79;41.16;94452.56;4915435;29;7069;-62
2022/07/20 12:21:52;;;;;;;;;;;;;;;29.78;40.53;94451.81;4910859;29;7899;-61
2022/07/20 12:24:21;;;;;;;;;;;;;;;29.77;41.15;94450.34;4918823;29;7935;-62
2022/07/20 12:27:06;;;;;;;;;;;;;;;29.77;40.73;94444.03;4931450;29;7305;-62
2022/07/20 12:30:27;;;;;;;;;;;;;;;29.78;40.42;94446.28;4930138;29;7071;-61
2022/07/20 12:33:15;;;;;;;;;;;;;;;29.80;40.26;94426.31;4828218;29;7298;-62
2022/07/20 12:35:47;;;;;;;;;;;;;;;29.81;41.10;94438.91;4853643;29;7245;-61
2022/07/20 12:38:15;;;;;;;;;;;;;;;29.83;40.47;94430.78;4857279;29;8581;-62
2022/07/20 12:40:48;;;;;;;;;;;;;;;29.83;41.42;94425.25;4837540;29;7085;-62
2022/07/20 12:43:36;;;;;;;;;;;;;;;29.82;41.13;94409.88;4859300;29;7232;-61
2022/07/20 12:46:07;;;;;;;;;;;;;;;29.87;40.61;94417.34;4850350;29;7474;-61
2022/07/20 12:48:39;;;;;;;;;;;;;;;29.90;40.24;94413.50;4836220;29;7346;-61
2022/07/20 12:51:06;;;;;;;;;;;;;;;29.92;40.95;94412.94;4906208;29;7203;-62
2022/07/20 12:53:34;;;;;;;;;;;;;;;29.94;41.04;94402.81;4899689;29;9229;-62
2022/07/20 12:56:01;;;;;;;;;;;;;;;29.95;41.16;94404.28;4901386;29;7225;-62
2022/07/20 12:58:27;;;;;;;;;;;;;;;29.96;40.63;94405.78;4916495;29;7648;-62
2022/07/20 13:00:53;;;;;;;;;;;;;;;29.98;41.06;94403.22;4901683;29;7351;-62
2022/07/20 13:03:33;;;;;;;;;;;;;;;29.98;40.97;94400.44;4899623;29;9100;-62
2022/07/20 13:06:20;;;;;;;;;;;;;;;29.98;40.20;94394.91;4900373;29;9160;-62
2022/07/20 13:09:23;;;;;;;;;;;;;;;29.99;41.03;94396.41;4971911;28;7108;-62
2022/07/20 13:11:52;;;;;;;;;;;;;;;29.99;41.33;94392.88;4986423;28;7188;-61
2022/07/20 13:14:23;;;;;;;;;;;;;;;30.00;40.61;94395.09;4990449;28;9422;-61
2022/07/20 13:16:54;;;;;;;;;;;;;;;30.01;41.39;94388.28;4964822;28;9165;-61
2022/07/20 13:19:51;;;;;;;;;;;;;;;30.04;40.96;94394.75;4985053;28;7883;-62
2022/07/20 13:22:17;;;;;;;;;;;;;;;30.03;40.62;94394.03;4941603;28;7206;-61
2022/07/20 13:24:43;;;;;;;;;;;;;;;30.06;40.33;94400.53;4939382;28;7120;-62
2022/07/20 13:27:09;;;;;;;;;;;;;;;30.06;40.78;94395.00;4949536;28;9135;-62
2022/07/20 13:29:40;;;;;;;;;;;;;;;30.08;40.08;94395.91;4951309;28;9364;-61
2022/07/20 13:32:07;;;;;;;;;;;;;;;30.05;40.16;94397.00;4933987;28;9064;-61
2022/07/20 13:34:37;;;;;;;;;;;;;;;30.07;40.94;94402.00;4936074;28;8738;-62
2022/07/20 13:37:06;;;;;;;;;;;;;;;30.05;40.73;94402.56;4935527;28;7236;-62